CST4 weather

Sorel-Tracy/Air Nature Inc. (Heli)
Quebec, Canada

Public forecast

Using degrees Celsius for public forecast. Weather courtesy of forecast.io.

Closest aviation weather report (METAR) to Sorel-Tracy/Air Nature Inc. (Heli)

Closest report is Trois-Rivières Airport, 26.5 nm (49.1 km) NE. Retrieved 2020/08/06 13:00 UTC (48 minutes ago):

CYRQ 061300Z AUTO 24008KT 9SM CLR 18/13 A3002 RMK SLP166 DENSITY ALT 400FT

Closest aviation forecast (TAF) to Sorel-Tracy/Air Nature Inc. (Heli)

Closest forecast is Trois-Rivières Airport, 26.5 nm (49.1 km) NE. Retrieved 2020/08/06 14:00 UTC (0 seconds ago):

TAF CYRQ 061338Z 0614/0702 24008KT P6SM SCT030 TEMPO 0614/0616 BKN030 FM061600 23010KT P6SM BKN040 TEMPO 0616/0624 P6SM -SHRA FM070000 21008KT P6SM BKN050 RMK FCST BASED ON AUTO OBS NXT FCST BY 062000Z